Time;durP1;ratioP1;P1;durP2;ratioP2;P2;SDS_P1;SDS_P2;PMS_P1;PMS_P2;Temp;Humidity;BMP_temperature;BMP_pressure;BME280_temperature;BME280_humidity;BME280_pressure;Samples;Min_cycle;Max_cycle;Signal;HPM_P1;HPM_P2
2020/12/28 00:01:18;;;;;;;12.68;10.48;;;4.60;99.90;;;;;;4180026;28;20025;-78
2020/12/28 00:03:19;;;;;;;14.77;10.32;;;4.60;99.90;;;;;;4180255;28;20029;-78
2020/12/28 00:05:20;;;;;;;14.00;10.15;;;4.50;99.90;;;;;;4180330;28;20369;-78
2020/12/28 00:07:21;;;;;;;15.50;11.73;;;4.50;99.90;;;;;;4180190;28;20128;-78
2020/12/28 00:09:21;;;;;;;13.95;11.48;;;4.40;99.90;;;;;;4179774;28;20084;-78
2020/12/28 00:11:22;;;;;;;14.25;11.07;;;4.30;99.90;;;;;;4180147;28;20060;-78
2020/12/28 00:13:23;;;;;;;14.32;11.63;;;4.30;99.90;;;;;;4180123;28;20060;-78
2020/12/28 00:15:26;;;;;;;13.50;11.38;;;4.30;99.90;;;;;;4179921;28;20040;-78
2020/12/28 00:17:27;;;;;;;14.27;11.27;;;4.30;99.90;;;;;;4162286;28;20148;-78
2020/12/28 00:19:28;;;;;;;15.15;12.55;;;4.20;99.90;;;;;;4173359;28;20468;-78
2020/12/28 00:21:28;;;;;;;15.10;12.02;;;4.30;99.90;;;;;;4164382;28;20033;-78
2020/12/28 00:23:29;;;;;;;13.50;11.05;;;4.30;99.90;;;;;;4179630;28;20052;-78
2020/12/28 00:25:29;;;;;;;15.75;12.20;;;4.30;99.90;;;;;;4179937;28;20119;-78
2020/12/28 00:27:30;;;;;;;14.73;12.45;;;4.30;99.90;;;;;;4162112;28;20029;-78
2020/12/28 00:29:31;;;;;;;14.32;12.25;;;4.30;99.90;;;;;;4179972;28;20025;-79
2020/12/28 00:31:32;;;;;;;18.60;12.45;;;4.40;99.90;;;;;;4179723;28;20033;-78
2020/12/28 00:33:32;;;;;;;13.45;10.77;;;4.40;99.90;;;;;;4179770;28;20429;-78
2020/12/28 00:35:33;;;;;;;15.95;13.07;;;4.40;99.90;;;;;;4179676;28;20032;-78
2020/12/28 00:37:34;;;;;;;16.27;12.18;;;4.40;99.90;;;;;;4179995;28;20472;-78
2020/12/28 00:39:34;;;;;;;17.25;12.05;;;4.40;99.90;;;;;;4179920;28;20472;-79
2020/12/28 00:41:35;;;;;;;16.20;12.27;;;4.30;99.90;;;;;;4179306;28;20028;-80
2020/12/28 00:43:35;;;;;;;16.23;12.65;;;4.20;99.90;;;;;;4162138;28;20431;-79
2020/12/28 00:45:36;;;;;;;19.20;13.98;;;4.20;99.90;;;;;;4179604;28;20032;-79
2020/12/28 00:47:37;;;;;;;17.05;12.98;;;4.00;99.90;;;;;;4179509;28;20488;-79
2020/12/28 00:49:37;;;;;;;20.52;14.02;;;4.00;99.90;;;;;;4179603;28;20029;-78
2020/12/28 00:51:38;;;;;;;20.20;13.65;;;3.90;99.90;;;;;;4179716;28;20056;-78
2020/12/28 00:53:38;;;;;;;24.58;16.25;;;3.80;99.90;;;;;;4179452;28;20063;-80
2020/12/28 00:55:39;;;;;;;22.08;15.48;;;3.80;99.90;;;;;;4179843;28;20060;-78
2020/12/28 00:57:40;;;;;;;22.92;14.82;;;3.80;99.90;;;;;;4179567;28;20028;-78
2020/12/28 00:59:40;;;;;;;21.02;15.73;;;3.70;99.90;;;;;;4179139;28;20502;-78
2020/12/28 01:01:41;;;;;;;26.48;16.65;;;3.70;99.90;;;;;;4162129;28;20369;-78
2020/12/28 01:03:41;;;;;;;25.73;17.25;;;3.70;99.90;;;;;;4179388;28;20025;-78
2020/12/28 01:05:43;;;;;;;28.40;18.30;;;3.80;99.90;;;;;;4179495;28;20051;-78
2020/12/28 01:07:44;;;;;;;31.52;18.92;;;3.80;99.90;;;;;;4179468;28;20021;-79
2020/12/28 01:09:44;;;;;;;28.55;18.42;;;3.90;99.90;;;;;;4178593;28;20029;-78
2020/12/28 01:11:45;;;;;;;32.60;19.15;;;3.90;99.90;;;;;;4166308;28;20492;-78
2020/12/28 01:13:46;;;;;;;30.40;18.17;;;4.00;99.90;;;;;;4161901;28;20038;-78
2020/12/28 01:15:46;;;;;;;31.23;18.17;;;4.10;99.90;;;;;;4161634;28;20050;-78
2020/12/28 01:17:47;;;;;;;29.15;17.33;;;4.10;99.90;;;;;;4179190;28;20116;-78
2020/12/28 01:19:47;;;;;;;35.65;20.35;;;4.10;99.90;;;;;;4179591;28;20051;-79
2020/12/28 01:21:48;;;;;;;32.20;19.40;;;4.20;99.90;;;;;;4175423;28;20495;-79
2020/12/28 01:23:49;;;;;;;32.17;20.02;;;4.20;99.90;;;;;;4179410;28;20029;-80
2020/12/28 01:25:49;;;;;;;29.48;19.08;;;4.20;99.90;;;;;;4161680;28;20477;-79
2020/12/28 01:27:50;;;;;;;28.73;17.90;;;4.30;99.90;;;;;;4179578;28;20063;-79
2020/12/28 01:29:51;;;;;;;29.95;18.30;;;4.30;99.90;;;;;;4161426;28;20037;-78
2020/12/28 01:31:51;;;;;;;29.60;17.98;;;4.30;99.90;;;;;;4179157;28;20542;-79
2020/12/28 01:33:52;;;;;;;29.23;18.10;;;4.30;99.90;;;;;;4182644;28;20037;-79
2020/12/28 01:35:52;;;;;;;28.45;19.20;;;4.30;99.90;;;;;;4164416;28;20415;-79
2020/12/28 01:37:53;;;;;;;26.13;18.85;;;4.40;99.90;;;;;;4182824;28;20120;-79
2020/12/28 01:39:54;;;;;;;33.70;19.15;;;4.40;99.90;;;;;;4182490;28;20056;-79
2020/12/28 01:41:54;;;;;;;28.52;18.33;;;4.40;99.90;;;;;;4166437;28;20038;-79
2020/12/28 01:43:55;;;;;;;25.27;17.60;;;4.40;99.90;;;;;;4180850;28;20029;-79
2020/12/28 01:45:56;;;;;;;28.85;17.10;;;4.40;99.90;;;;;;4175532;28;20120;-79
2020/12/28 01:47:56;;;;;;;27.35;18.92;;;4.40;99.90;;;;;;4181712;28;20049;-79
2020/12/28 01:49:57;;;;;;;28.38;19.17;;;4.40;99.90;;;;;;4164469;28;20061;-79
2020/12/28 01:52:03;;;;;;;28.60;18.50;;;4.40;99.90;;;;;;4164436;28;20030;-78
2020/12/28 01:54:04;;;;;;;30.92;18.67;;;4.40;99.90;;;;;;4163878;28;20033;-78
2020/12/28 01:56:06;;;;;;;29.88;18.40;;;4.40;99.90;;;;;;4182083;28;20112;-78
2020/12/28 01:58:07;;;;;;;29.55;18.85;;;4.40;99.90;;;;;;4182309;28;20024;-78
2020/12/28 02:00:08;;;;;;;32.97;20.20;;;4.40;99.90;;;;;;4182069;28;20032;-79
2020/12/28 02:02:10;;;;;;;28.35;19.33;;;4.40;99.90;;;;;;4164303;28;20421;-79
2020/12/28 02:04:11;;;;;;;33.58;21.75;;;4.50;99.90;;;;;;4160736;28;20030;-78
2020/12/28 02:06:14;;;;;;;32.67;19.88;;;4.40;99.90;;;;;;4161269;28;20025;-78
2020/12/28 02:08:15;;;;;;;37.00;20.92;;;4.50;99.90;;;;;;4174738;28;20025;-78
2020/12/28 02:10:15;;;;;;;38.88;22.33;;;4.40;99.90;;;;;;4182039;28;20100;-79
2020/12/28 02:12:16;;;;;;;37.53;22.50;;;4.40;99.90;;;;;;4181978;28;20033;-79
2020/12/28 02:14:17;;;;;;;35.13;21.33;;;4.40;99.90;;;;;;4182079;28;20041;-78
2020/12/28 02:16:18;;;;;;;33.33;20.13;;;4.40;99.90;;;;;;4182082;28;20395;-78
2020/12/28 02:18:20;;;;;;;33.60;20.65;;;4.50;99.90;;;;;;4163941;28;20393;-79
2020/12/28 02:20:21;;;;;;;31.98;21.45;;;4.50;99.90;;;;;;4164257;28;26025;-79
2020/12/28 02:22:21;;;;;;;30.63;19.45;;;4.50;99.90;;;;;;4182088;28;20036;-79
2020/12/28 02:24:22;;;;;;;30.92;19.63;;;4.50;99.90;;;;;;4181747;28;20025;-79
2020/12/28 02:26:23;;;;;;;35.60;21.55;;;4.50;99.90;;;;;;4159797;28;20088;-79
2020/12/28 02:28:23;;;;;;;26.67;18.92;;;4.50;99.90;;;;;;4179540;28;20815;-78
2020/12/28 02:30:24;;;;;;;31.23;19.60;;;4.50;99.90;;;;;;4163775;28;20025;-78
2020/12/28 02:32:25;;;;;;;31.63;21.63;;;4.50;99.90;;;;;;4180326;28;20368;-78
2020/12/28 02:34:26;;;;;;;25.17;19.02;;;4.50;99.90;;;;;;4180531;28;20029;-78
2020/12/28 02:36:26;;;;;;;28.90;19.75;;;4.50;99.90;;;;;;4181499;28;20025;-78
2020/12/28 02:38:27;;;;;;;30.38;19.95;;;4.50;99.90;;;;;;4163520;28;20061;-78
2020/12/28 02:40:28;;;;;;;24.77;18.05;;;4.50;99.90;;;;;;4163645;28;20033;-78
2020/12/28 02:42:28;;;;;;;28.65;19.35;;;4.50;99.90;;;;;;4181513;28;20140;-78
2020/12/28 02:44:29;;;;;;;31.02;20.20;;;4.50;99.90;;;;;;4178993;28;20388;-78
2020/12/28 02:46:30;;;;;;;25.77;18.33;;;4.50;99.90;;;;;;4179992;28;20025;-78
2020/12/28 02:48:30;;;;;;;26.90;18.58;;;4.40;99.90;;;;;;4179504;28;20044;-78
2020/12/28 02:50:31;;;;;;;25.30;19.33;;;4.50;99.90;;;;;;4179586;28;20112;-78
2020/12/28 02:52:32;;;;;;;25.92;16.88;;;4.50;99.90;;;;;;4179939;28;20467;-79
2020/12/28 02:54:32;;;;;;;25.60;18.50;;;4.50;99.90;;;;;;4179618;28;20503;-78
2020/12/28 02:56:33;;;;;;;30.10;17.80;;;4.50;99.90;;;;;;4179814;28;20120;-79
2020/12/28 02:58:34;;;;;;;21.85;17.48;;;4.50;99.90;;;;;;4162076;28;20044;-79
2020/12/28 03:00:34;;;;;;;28.13;17.25;;;4.50;99.90;;;;;;4161811;28;20072;-78
2020/12/28 03:02:35;;;;;;;26.15;18.63;;;4.50;99.90;;;;;;4180088;28;20550;-78
2020/12/28 03:04:35;;;;;;;25.17;18.02;;;4.50;99.90;;;;;;4179809;28;20409;-78
2020/12/28 03:06:36;;;;;;;22.58;17.52;;;4.50;99.90;;;;;;4179370;28;20037;-78
2020/12/28 03:08:37;;;;;;;25.08;18.13;;;4.50;99.90;;;;;;4179670;28;20112;-78
2020/12/28 03:10:37;;;;;;;21.30;17.30;;;4.50;99.90;;;;;;4179783;28;20495;-78
2020/12/28 03:12:38;;;;;;;24.10;17.80;;;4.50;99.90;;;;;;4179866;28;20025;-78
2020/12/28 03:14:39;;;;;;;26.48;18.15;;;4.50;99.90;;;;;;4161636;28;20040;-78
2020/12/28 03:16:40;;;;;;;22.15;16.25;;;4.50;99.90;;;;;;4179270;28;20380;-78
2020/12/28 03:18:40;;;;;;;22.77;16.55;;;4.50;99.90;;;;;;4179515;28;20032;-78
2020/12/28 03:20:41;;;;;;;21.38;17.65;;;4.50;99.90;;;;;;4179243;28;20067;-78
2020/12/28 03:22:42;;;;;;;30.00;17.80;;;4.50;99.90;;;;;;4179345;28;20443;-79
2020/12/28 03:24:42;;;;;;;21.92;17.63;;;4.50;99.90;;;;;;4161724;28;20087;-79
2020/12/28 03:26:43;;;;;;;23.42;16.45;;;4.50;99.90;;;;;;4161665;28;20470;-77
2020/12/28 03:28:44;;;;;;;24.95;18.20;;;4.50;99.90;;;;;;4179110;28;20423;-78
2020/12/28 03:30:44;;;;;;;23.45;16.20;;;4.50;99.90;;;;;;4179432;28;20395;-80
2020/12/28 03:32:45;;;;;;;21.63;17.13;;;4.50;99.90;;;;;;4179175;28;20540;-80
2020/12/28 03:34:45;;;;;;;22.00;16.15;;;4.50;99.90;;;;;;4178819;28;20029;-78
2020/12/28 03:36:46;;;;;;;23.80;16.48;;;4.50;99.90;;;;;;4166135;28;20464;-78
2020/12/28 03:38:47;;;;;;;21.70;17.02;;;4.40;99.90;;;;;;4180336;28;20025;-78
2020/12/28 03:40:48;;;;;;;22.70;17.60;;;4.40;99.90;;;;;;4162737;28;20025;-79
2020/12/28 03:42:49;;;;;;;19.52;14.18;;;4.50;99.90;;;;;;4161875;28;20748;-79
2020/12/28 03:44:49;;;;;;;20.90;14.35;;;4.50;99.90;;;;;;4173922;28;20167;-79
2020/12/28 03:46:50;;;;;;;21.35;14.98;;;4.50;99.90;;;;;;4180549;28;20432;-79
2020/12/28 03:48:51;;;;;;;21.92;13.68;;;4.40;99.90;;;;;;4162520;28;20480;-79
2020/12/28 03:50:51;;;;;;;19.98;15.02;;;4.40;99.90;;;;;;4180528;28;20435;-79
2020/12/28 03:52:52;;;;;;;17.90;12.27;;;4.50;99.90;;;;;;4180480;28;20551;-78
2020/12/28 03:54:52;;;;;;;17.02;13.30;;;4.40;99.90;;;;;;4162437;28;20037;-79
2020/12/28 03:56:53;;;;;;;22.30;13.43;;;4.40;99.90;;;;;;4180223;28;20384;-79
2020/12/28 03:58:54;;;;;;;19.90;14.15;;;4.40;99.90;;;;;;4162582;28;20033;-78
2020/12/28 04:00:54;;;;;;;18.20;14.27;;;4.30;99.90;;;;;;4180260;28;20479;-80
2020/12/28 04:02:55;;;;;;;18.77;12.20;;;4.30;99.90;;;;;;4179887;28;20438;-79
2020/12/28 04:04:56;;;;;;;18.98;11.02;;;4.20;99.90;;;;;;4180193;28;20032;-79
2020/12/28 04:06:57;;;;;;;17.30;12.75;;;4.20;99.90;;;;;;4180068;28;20055;-79
2020/12/28 04:08:57;;;;;;;18.30;13.45;;;4.20;99.90;;;;;;4180261;28;20021;-80
2020/12/28 04:10:58;;;;;;;20.10;13.05;;;4.20;99.90;;;;;;4180029;28;20021;-79
2020/12/28 04:12:59;;;;;;;16.98;12.50;;;4.20;99.90;;;;;;4180003;28;20022;-79
2020/12/28 04:14:59;;;;;;;19.73;13.13;;;4.20;99.90;;;;;;4179764;28;20047;-79
2020/12/28 04:17:00;;;;;;;20.25;13.43;;;4.20;99.90;;;;;;4179782;28;20021;-79
2020/12/28 04:19:01;;;;;;;15.60;12.23;;;4.10;99.90;;;;;;4179864;28;20388;-77
2020/12/28 04:21:02;;;;;;;16.90;12.25;;;4.20;99.90;;;;;;4179865;28;20026;-79
2020/12/28 04:23:03;;;;;;;19.70;13.18;;;4.20;99.90;;;;;;4179707;28;20123;-80
2020/12/28 04:25:03;;;;;;;16.63;12.50;;;4.10;99.90;;;;;;4179694;28;20036;-78
2020/12/28 04:27:04;;;;;;;17.60;11.80;;;4.10;99.90;;;;;;4162037;28;20404;-78
2020/12/28 04:29:05;;;;;;;19.95;14.90;;;4.10;99.90;;;;;;4162247;28;20434;-79
2020/12/28 04:31:09;;;;;;;20.17;12.65;;;4.10;99.90;;;;;;4161971;28;20030;-79
2020/12/28 04:33:10;;;;;;;18.45;13.00;;;4.10;99.90;;;;;;4179590;28;20036;-80
2020/12/28 04:35:10;;;;;;;15.57;12.60;;;4.00;99.90;;;;;;4179337;28;20472;-80
2020/12/28 04:37:11;;;;;;;19.25;13.50;;;4.00;99.90;;;;;;4179619;28;20070;-78
2020/12/28 04:39:12;;;;;;;18.05;12.80;;;4.00;99.90;;;;;;4161980;28;20107;-78
2020/12/28 04:41:12;;;;;;;15.38;11.82;;;4.00;99.90;;;;;;4179440;28;20478;-81
2020/12/28 04:43:14;;;;;;;17.50;12.73;;;4.00;99.90;;;;;;4179707;28;20056;-80
2020/12/28 04:45:14;;;;;;;21.67;13.63;;;4.00;99.90;;;;;;4179867;28;20032;-80
2020/12/28 04:47:15;;;;;;;17.40;13.32;;;3.90;99.90;;;;;;4179689;28;20025;-79
2020/12/28 04:49:15;;;;;;;21.15;13.43;;;3.90;99.90;;;;;;4179207;28;20037;-80
2020/12/28 04:51:17;;;;;;;19.55;13.40;;;3.90;99.90;;;;;;4179617;28;20076;-80
2020/12/28 04:53:18;;;;;;;22.33;14.43;;;3.90;99.90;;;;;;4179695;28;20507;-78
2020/12/28 04:55:19;;;;;;;18.20;12.98;;;3.90;99.90;;;;;;4179653;28;20025;-78
2020/12/28 04:57:20;;;;;;;20.33;12.75;;;3.90;99.90;;;;;;4179441;28;20040;-80
2020/12/28 04:59:20;;;;;;;20.48;13.57;;;3.90;99.90;;;;;;4179584;28;20407;-79
2020/12/28 05:01:21;;;;;;;19.25;12.80;;;3.80;99.90;;;;;;4179315;28;20341;-78
2020/12/28 05:03:24;;;;;;;17.70;12.00;;;3.80;99.90;;;;;;4161684;28;20025;-80
2020/12/28 05:05:24;;;;;;;15.80;12.00;;;3.80;99.90;;;;;;4179789;28;20380;-78
2020/12/28 05:07:30;;;;;;;20.75;12.23;;;3.90;99.90;;;;;;4179004;28;20025;-78
2020/12/28 05:09:33;;;;;;;15.93;12.57;;;3.90;99.90;;;;;;4179489;28;20509;-80
2020/12/28 05:11:33;;;;;;;14.38;11.55;;;3.90;99.90;;;;;;4179655;28;20025;-78
2020/12/28 05:13:34;;;;;;;21.35;13.75;;;3.90;99.90;;;;;;4179560;28;20079;-79
2020/12/28 05:15:44;;;;;;;16.67;11.95;;;3.90;99.90;;;;;;4179329;28;20511;-79
2020/12/28 05:17:54;;;;;;;17.05;12.15;;;3.80;99.90;;;;;;4179598;28;20029;-78
2020/12/28 05:19:59;;;;;;;19.00;12.38;;;3.80;99.90;;;;;;4161602;28;20052;-78
2020/12/28 05:22:00;;;;;;;21.40;12.63;;;3.80;99.90;;;;;;4179224;28;20051;-79
2020/12/28 05:24:11;;;;;;;15.05;10.80;;;3.80;99.90;;;;;;4179374;28;20053;-79
2020/12/28 05:26:12;;;;;;;20.83;12.63;;;3.80;99.90;;;;;;4179265;28;20125;-78
2020/12/28 05:28:24;;;;;;;17.23;11.60;;;3.80;99.90;;;;;;4163055;28;20113;-79
2020/12/28 05:30:25;;;;;;;20.75;13.90;;;3.90;99.90;;;;;;4161264;28;20025;-80
2020/12/28 05:32:27;;;;;;;18.30;11.65;;;3.80;99.90;;;;;;4161178;28;20025;-80
2020/12/28 05:34:28;;;;;;;20.08;11.65;;;3.80;99.90;;;;;;4177613;28;20036;-80
2020/12/28 05:36:29;;;;;;;24.15;12.27;;;3.70;99.90;;;;;;4177416;28;20112;-79
2020/12/28 05:38:31;;;;;;;17.05;12.23;;;3.80;99.90;;;;;;4177648;28;20500;-78
2020/12/28 05:40:33;;;;;;;19.90;13.13;;;3.80;99.90;;;;;;4160649;28;20493;-79
2020/12/28 05:42:35;;;;;;;20.90;13.20;;;3.80;99.90;;;;;;4168287;28;20519;-79
2020/12/28 05:44:40;;;;;;;25.13;13.02;;;3.80;99.90;;;;;;4176884;28;20037;-79
2020/12/28 05:46:41;;;;;;;19.33;14.13;;;3.80;99.90;;;;;;4178408;28;20029;-80
2020/12/28 05:48:47;;;;;;;22.92;13.68;;;3.80;99.90;;;;;;4178215;28;20041;-78
2020/12/28 05:50:57;;;;;;;22.27;12.35;;;3.80;99.90;;;;;;4178590;28;20021;-79
2020/12/28 05:52:59;;;;;;;19.65;13.32;;;3.90;99.90;;;;;;4179119;28;20025;-79
2020/12/28 05:55:02;;;;;;;18.27;12.43;;;3.80;99.90;;;;;;4161302;28;20141;-79
2020/12/28 05:57:07;;;;;;;27.23;13.23;;;3.80;99.90;;;;;;4178732;28;20264;-78
2020/12/28 05:59:10;;;;;;;23.42;13.43;;;3.80;99.90;;;;;;4160588;28;20026;-78
2020/12/28 06:01:11;;;;;;;;;;;3.90;99.90;;;;;;4160574;28;20377;-79
2020/12/28 06:03:12;;;;;;;17.20;11.77;;;3.90;99.90;;;;;;4178328;28;19920;-79
2020/12/28 06:05:20;;;;;;;18.92;12.15;;;4.00;99.90;;;;;;4167890;28;20056;-79
2020/12/28 06:07:22;;;;;;;18.30;12.52;;;4.00;99.90;;;;;;4155005;28;20501;-79
2020/12/28 06:09:23;;;;;;;20.83;13.20;;;4.00;99.90;;;;;;4174346;28;20472;-79
2020/12/28 06:11:24;;;;;;;18.33;11.98;;;4.00;99.90;;;;;;4178724;28;20063;-79
2020/12/28 06:13:25;;;;;;;21.85;12.73;;;4.00;99.90;;;;;;4159853;28;20029;-78
2020/12/28 06:15:25;;;;;;;20.02;12.40;;;4.00;99.90;;;;;;4159549;28;20018;-79
2020/12/28 06:17:36;;;;;;;20.52;14.45;;;4.00;99.90;;;;;;4159437;28;20029;-78
2020/12/28 06:19:37;;;;;;;20.30;12.35;;;4.00;99.90;;;;;;4160937;28;20484;-79
2020/12/28 06:21:38;;;;;;;20.00;13.80;;;3.90;99.90;;;;;;4153209;28;20047;-79
2020/12/28 06:23:48;;;;;;;20.38;12.93;;;3.90;99.90;;;;;;4181724;28;20491;-79
2020/12/28 06:25:53;;;;;;;21.98;14.13;;;3.90;99.90;;;;;;4181717;28;20017;-79
2020/12/28 06:27:53;;;;;;;21.45;13.55;;;3.90;99.90;;;;;;4163106;28;20524;-78
2020/12/28 06:30:06;;;;;;;25.50;13.73;;;3.90;99.90;;;;;;4181295;28;20033;-80
2020/12/28 06:32:14;;;;;;;23.27;13.38;;;3.90;99.90;;;;;;4181324;28;20025;-79
2020/12/28 06:34:19;;;;;;;21.77;12.10;;;4.00;99.90;;;;;;4163115;28;20033;-78
2020/12/28 06:36:20;;;;;;;18.88;13.25;;;3.90;99.90;;;;;;4180289;28;20078;-79
2020/12/28 06:38:24;;;;;;;23.42;15.15;;;4.00;99.90;;;;;;4163802;28;20041;-79
2020/12/28 06:40:40;;;;;;;24.92;13.85;;;4.00;99.90;;;;;;4181325;28;20567;-79
2020/12/28 06:42:40;;;;;;;24.38;14.15;;;4.00;99.90;;;;;;4180572;28;20029;-78
2020/12/28 06:44:42;;;;;;;22.45;14.10;;;3.90;99.90;;;;;;4162406;28;20585;-80
2020/12/28 06:46:42;;;;;;;17.67;13.55;;;3.90;99.90;;;;;;4179788;28;20025;-80
2020/12/28 06:48:44;;;;;;;21.83;13.20;;;3.90;99.90;;;;;;4179845;28;20420;-79
2020/12/28 06:50:45;;;;;;;22.23;13.43;;;3.90;99.90;;;;;;4180712;28;20423;-80
2020/12/28 06:52:52;;;;;;;23.08;13.18;;;3.90;99.90;;;;;;4180571;28;20037;-79
2020/12/28 06:54:53;;;;;;;19.33;11.88;;;3.90;99.90;;;;;;4180739;28;20111;-79
2020/12/28 06:56:54;;;;;;;18.25;12.15;;;3.90;99.90;;;;;;4180670;28;20484;-78
2020/12/28 06:58:59;;;;;;;21.92;14.13;;;3.90;99.90;;;;;;4179672;28;20555;-79
2020/12/28 07:01:07;;;;;;;17.02;13.13;;;3.90;99.90;;;;;;4162311;28;20034;-79
2020/12/28 07:03:25;;;;;;;21.67;13.20;;;3.90;99.90;;;;;;4149455;28;20537;-78
2020/12/28 07:05:26;;;;;;;19.10;13.40;;;3.90;99.90;;;;;;4179302;28;20029;-79
2020/12/28 07:07:27;;;;;;;17.40;12.90;;;4.00;99.90;;;;;;4180894;28;20082;-79
2020/12/28 07:09:28;;;;;;;24.92;12.98;;;4.00;99.90;;;;;;4180809;28;20178;-80
2020/12/28 07:11:29;;;;;;;20.38;12.98;;;4.00;99.90;;;;;;4180576;28;20095;-79
2020/12/28 07:13:30;;;;;;;22.77;13.65;;;4.00;99.90;;;;;;4159459;28;20034;-79
2020/12/28 07:15:31;;;;;;;21.58;12.98;;;4.00;99.90;;;;;;4172820;28;20028;-79
2020/12/28 07:17:32;;;;;;;25.92;14.50;;;4.00;99.90;;;;;;4180918;28;20480;-79
2020/12/28 07:19:33;;;;;;;20.95;13.48;;;4.00;99.90;;;;;;4180854;28;20036;-80
2020/12/28 07:21:34;;;;;;;17.38;12.65;;;4.00;99.90;;;;;;4162350;28;20488;-80
2020/12/28 07:23:35;;;;;;;25.95;14.15;;;4.00;99.90;;;;;;4178189;28;20120;-80
2020/12/28 07:25:36;;;;;;;18.63;12.70;;;4.00;99.90;;;;;;4171365;28;20052;-80
2020/12/28 07:27:39;;;;;;;17.85;13.00;;;4.00;99.90;;;;;;4180728;28;20033;-78
2020/12/28 07:29:41;;;;;;;;;;;4.00;99.90;;;;;;4181256;28;20063;-79
2020/12/28 07:31:42;;;;;;;18.27;12.10;;;4.00;99.90;;;;;;4180528;28;19916;-79
2020/12/28 07:33:45;;;;;;;23.73;14.82;;;4.00;99.90;;;;;;4179032;28;20033;-79
2020/12/28 07:35:46;;;;;;;16.73;12.55;;;4.00;99.90;;;;;;4162570;28;20026;-79
2020/12/28 07:37:46;;;;;;;17.40;12.05;;;4.00;99.90;;;;;;4178827;28;20078;-80
2020/12/28 07:39:48;;;;;;;22.73;13.02;;;4.00;99.90;;;;;;4151196;28;20026;-80
2020/12/28 07:41:49;;;;;;;18.00;12.65;;;4.00;99.90;;;;;;4178297;28;20116;-80
2020/12/28 07:43:55;;;;;;;19.75;13.15;;;4.00;99.90;;;;;;4157539;28;20088;-80
2020/12/28 07:46:07;;;;;;;18.73;12.98;;;4.00;99.90;;;;;;4175391;28;20510;-80
2020/12/28 07:48:09;;;;;;;19.38;12.73;;;4.00;99.90;;;;;;4155016;28;20124;-81
2020/12/28 07:50:14;;;;;;;17.05;11.90;;;4.00;99.90;;;;;;4147614;28;20152;-81
2020/12/28 07:52:21;;;;;;;24.38;14.68;;;4.00;99.90;;;;;;4145797;28;20045;-80
2020/12/28 07:54:25;;;;;;;23.50;12.45;;;4.00;99.90;;;;;;4147678;28;20068;-81
2020/12/28 07:56:33;;;;;;;15.88;11.43;;;4.00;99.90;;;;;;4146211;28;20489;-80
2020/12/28 07:59:18;;;;;;;15.85;10.82;;;4.00;99.90;;;;;;4146357;28;20084;-81
2020/12/28 08:01:33;;;;;;;17.40;11.38;;;4.00;99.90;;;;;;4095590;28;20063;-79
2020/12/28 08:03:49;;;;;;;17.40;10.02;;;4.00;99.90;;;;;;4123970;28;20498;-80
2020/12/28 08:05:52;;;;;;;14.88;10.48;;;4.00;99.90;;;;;;4145570;28;20423;-80
2020/12/28 08:07:53;;;;;;;17.77;11.80;;;3.90;99.90;;;;;;4135684;28;20049;-80
2020/12/28 08:09:56;;;;;;;18.60;11.80;;;3.90;99.90;;;;;;4145812;28;20065;-80
2020/12/28 08:12:01;;;;;;;;;;;3.90;99.90;;;;;;4134030;28;20021;-81
2020/12/28 08:14:09;;;;;;;14.98;10.07;;;3.80;99.90;;;;;;4142370;28;19929;-79
2020/12/28 08:16:12;;;;;;;14.35;10.05;;;3.80;99.90;;;;;;4147311;28;20034;-80
2020/12/28 08:18:13;;;;;;;13.95;9.65;;;3.70;99.90;;;;;;4145028;28;20030;-80
2020/12/28 08:20:13;;;;;;;12.30;9.45;;;3.70;99.90;;;;;;4132139;28;20038;-79
2020/12/28 08:22:21;;;;;;;16.77;10.00;;;3.70;99.90;;;;;;4138579;28;20043;-80
2020/12/28 08:24:22;;;;;;;13.52;8.82;;;3.70;99.90;;;;;;4130414;28;20041;-80
2020/12/28 08:26:28;;;;;;;13.48;9.10;;;3.70;99.90;;;;;;4130513;28;20330;-80
2020/12/28 08:28:32;;;;;;;11.43;8.68;;;3.70;99.90;;;;;;4142480;28;20034;-80
2020/12/28 08:30:33;;;;;;;15.55;9.38;;;3.70;99.90;;;;;;4138564;28;20471;-79
2020/12/28 08:32:35;;;;;;;12.68;9.57;;;3.80;99.90;;;;;;4139234;28;20025;-80
2020/12/28 08:34:36;;;;;;;12.38;8.85;;;3.80;99.90;;;;;;4137385;28;20026;-80
2020/12/28 08:36:49;;;;;;;11.90;8.65;;;3.80;99.90;;;;;;4144208;28;20033;-79
2020/12/28 08:38:50;;;;;;;;;;;3.80;99.90;;;;;;4161158;28;20068;-78
2020/12/28 08:40:55;;;;;;;11.57;8.70;;;3.90;99.90;;;;;;4140364;28;19955;-80
2020/12/28 08:42:57;;;;;;;10.00;8.63;;;3.80;99.90;;;;;;4142615;28;20022;-79
2020/12/28 08:45:01;;;;;;;11.75;8.18;;;3.90;99.90;;;;;;4136379;28;20034;-79
2020/12/28 08:47:12;;;;;;;29.08;10.43;;;3.90;99.90;;;;;;4144391;28;20030;-79
2020/12/28 08:49:23;;;;;;;17.15;7.57;;;3.90;99.90;;;;;;4165640;28;20102;-79
2020/12/28 08:51:24;;;;;;;16.63;8.13;;;4.00;99.90;;;;;;4155844;28;20030;-81
2020/12/28 08:53:24;;;;;;;11.05;7.93;;;4.00;99.90;;;;;;4163790;28;20056;-79
2020/12/28 08:55:25;;;;;;;8.45;7.63;;;4.10;99.90;;;;;;4165219;28;20447;-80
2020/12/28 08:57:28;;;;;;;9.68;8.13;;;4.00;99.90;;;;;;4166463;28;20022;-80
2020/12/28 08:59:29;;;;;;;16.45;9.88;;;4.00;99.90;;;;;;4163738;28;20104;-80
2020/12/28 09:01:29;;;;;;;9.80;7.82;;;4.00;99.90;;;;;;4165386;28;20029;-79
2020/12/28 09:03:37;;;;;;;12.20;8.57;;;3.90;99.90;;;;;;4163248;28;20035;-80
2020/12/28 09:05:38;;;;;;;9.02;7.40;;;4.00;99.90;;;;;;4144810;28;20026;-79
2020/12/28 09:07:38;;;;;;;11.13;8.38;;;4.00;99.90;;;;;;4164156;28;20022;-79
2020/12/28 09:09:44;;;;;;;10.70;8.63;;;4.00;99.90;;;;;;4166839;28;20465;-79
2020/12/28 09:11:45;;;;;;;10.75;7.68;;;3.90;99.90;;;;;;4164620;28;20108;-80
2020/12/28 09:13:47;;;;;;;9.45;7.63;;;3.90;99.90;;;;;;4163722;28;20032;-81
2020/12/28 09:15:47;;;;;;;13.45;8.55;;;3.80;99.90;;;;;;4163516;28;20061;-79
2020/12/28 09:17:49;;;;;;;12.32;7.57;;;3.90;99.90;;;;;;4148482;28;20030;-79
2020/12/28 09:19:50;;;;;;;11.00;8.88;;;3.90;99.90;;;;;;4147542;28;20034;-80
2020/12/28 09:21:52;;;;;;;10.20;8.48;;;3.90;99.90;;;;;;4178192;28;20465;-80
2020/12/28 09:23:52;;;;;;;10.40;7.75;;;3.90;99.90;;;;;;4177276;28;20120;-80
2020/12/28 09:25:52;;;;;;;13.40;8.00;;;4.00;99.90;;;;;;4161697;28;20041;-79
2020/12/28 09:27:53;;;;;;;9.68;7.10;;;3.90;99.90;;;;;;4161439;28;20034;-81
2020/12/28 09:29:54;;;;;;;13.23;7.63;;;4.00;99.90;;;;;;4161219;28;20029;-79
2020/12/28 09:31:54;;;;;;;10.43;7.95;;;4.00;99.90;;;;;;4165303;28;20051;-79
2020/12/28 09:33:55;;;;;;;10.80;7.30;;;4.10;99.90;;;;;;4152809;28;20033;-80
2020/12/28 09:35:55;;;;;;;9.82;6.75;;;4.10;99.90;;;;;;4161611;28;20041;-81
2020/12/28 09:37:56;;;;;;;10.25;6.78;;;4.10;99.90;;;;;;4135289;28;20424;-79
2020/12/28 09:39:57;;;;;;;10.07;6.88;;;4.20;99.90;;;;;;4167276;28;20121;-80
2020/12/28 09:41:58;;;;;;;11.73;6.53;;;4.20;99.90;;;;;;4165798;28;20017;-80
2020/12/28 09:43:58;;;;;;;16.05;8.32;;;4.20;99.90;;;;;;4147340;28;20045;-80
2020/12/28 09:45:59;;;;;;;13.52;7.03;;;4.20;99.90;;;;;;4167408;28;20484;-80
2020/12/28 09:47:59;;;;;;;8.70;6.75;;;4.20;99.90;;;;;;4163496;28;20042;-79
2020/12/28 09:50:00;;;;;;;12.68;7.18;;;4.20;99.90;;;;;;4164955;28;20469;-80
2020/12/28 09:52:01;;;;;;;8.93;6.63;;;4.20;99.90;;;;;;4149038;28;20026;-76
2020/12/28 09:54:02;;;;;;;7.10;6.22;;;4.20;99.90;;;;;;4150112;28;20086;-79
2020/12/28 09:56:03;;;;;;;11.15;7.38;;;4.30;99.90;;;;;;4162454;28;20041;-80
2020/12/28 09:58:03;;;;;;;10.57;6.75;;;4.30;99.90;;;;;;4168539;28;20017;-80
2020/12/28 10:00:04;;;;;;;10.05;6.55;;;4.30;99.90;;;;;;4177667;28;20033;-79
2020/12/28 10:02:07;;;;;;;10.45;7.00;;;4.30;99.90;;;;;;4167898;28;20492;-81
2020/12/28 10:04:07;;;;;;;9.65;6.95;;;4.30;99.90;;;;;;4167058;28;20424;-80
2020/12/28 10:08:27;;;;;;;10.57;5.88;;;4.30;99.90;;;;;;4168549;28;20392;-79
2020/12/28 10:10:28;;;;;;;9.40;7.97;;;4.40;99.90;;;;;;4165783;28;20022;-78
2020/12/28 10:12:29;;;;;;;12.15;6.90;;;4.50;99.90;;;;;;4167986;28;20567;-81
2020/12/28 10:14:30;;;;;;;10.90;7.07;;;4.50;99.90;;;;;;4168589;28;20048;-80
2020/12/28 10:16:31;;;;;;;13.23;7.15;;;4.50;99.90;;;;;;4169809;28;20065;-80
2020/12/28 10:18:32;;;;;;;8.38;6.57;;;4.50;99.90;;;;;;4181201;28;20481;-80
2020/12/28 10:20:33;;;;;;;12.25;7.57;;;4.60;99.90;;;;;;4169387;28;20033;-80
2020/12/28 10:22:34;;;;;;;8.48;6.25;;;4.60;99.90;;;;;;4166233;28;20029;-81
2020/12/28 10:24:34;;;;;;;10.50;7.07;;;4.70;99.90;;;;;;4178160;28;20464;-80
2020/12/28 10:26:35;;;;;;;11.23;6.53;;;4.70;99.90;;;;;;4150334;28;20030;-80
2020/12/28 10:28:35;;;;;;;9.30;6.05;;;4.80;99.90;;;;;;4168784;28;20425;-80
2020/12/28 10:30:36;;;;;;;8.63;6.93;;;4.80;99.90;;;;;;4181443;28;20053;-80
2020/12/28 10:32:37;;;;;;;12.65;6.93;;;4.80;99.90;;;;;;4163755;28;20523;-80